sensor_id;sensor_type;location;lat;lon;timestamp;P1;durP1;ratioP1;P2;durP2;ratioP2
74656;SDS011;63185;45.642;13.764;2023-12-04T00:00:15;4.43;;;2.50;;
74656;SDS011;63185;45.642;13.764;2023-12-04T00:02:41;6.45;;;3.65;;
74656;SDS011;63185;45.642;13.764;2023-12-04T00:05:07;5.78;;;2.95;;
74656;SDS011;63185;45.642;13.764;2023-12-04T00:07:33;4.55;;;2.40;;
74656;SDS011;63185;45.642;13.764;2023-12-04T00:09:59;3.17;;;1.92;;
74656;SDS011;63185;45.642;13.764;2023-12-04T00:12:24;4.00;;;2.20;;
74656;SDS011;63185;45.642;13.764;2023-12-04T00:14:50;4.55;;;2.10;;
74656;SDS011;63185;45.642;13.764;2023-12-04T00:17:16;4.93;;;2.03;;
74656;SDS011;63185;45.642;13.764;2023-12-04T00:19:42;4.15;;;2.03;;
74656;SDS011;63185;45.642;13.764;2023-12-04T00:22:07;3.90;;;2.10;;
74656;SDS011;63185;45.642;13.764;2023-12-04T00:24:33;5.13;;;2.58;;
74656;SDS011;63185;45.642;13.764;2023-12-04T00:26:59;3.90;;;2.42;;
74656;SDS011;63185;45.642;13.764;2023-12-04T00:29:24;3.28;;;1.88;;
74656;SDS011;63185;45.642;13.764;2023-12-04T00:31:50;5.22;;;2.30;;
74656;SDS011;63185;45.642;13.764;2023-12-04T00:34:16;4.25;;;1.98;;
74656;SDS011;63185;45.642;13.764;2023-12-04T00:36:41;4.15;;;2.20;;
74656;SDS011;63185;45.642;13.764;2023-12-04T00:39:07;4.10;;;2.38;;
74656;SDS011;63185;45.642;13.764;2023-12-04T00:41:33;4.38;;;2.15;;
74656;SDS011;63185;45.642;13.764;2023-12-04T00:43:59;4.30;;;2.17;;
74656;SDS011;63185;45.642;13.764;2023-12-04T00:46:24;5.30;;;2.72;;
74656;SDS011;63185;45.642;13.764;2023-12-04T00:48:50;5.75;;;2.42;;
74656;SDS011;63185;45.642;13.764;2023-12-04T00:51:16;3.78;;;2.20;;
74656;SDS011;63185;45.642;13.764;2023-12-04T00:53:42;4.78;;;2.30;;
74656;SDS011;63185;45.642;13.764;2023-12-04T00:56:08;4.57;;;2.42;;
74656;SDS011;63185;45.642;13.764;2023-12-04T00:58:34;5.35;;;2.67;;
74656;SDS011;63185;45.642;13.764;2023-12-04T01:01:00;6.07;;;3.13;;
74656;SDS011;63185;45.642;13.764;2023-12-04T01:03:25;8.73;;;4.20;;
74656;SDS011;63185;45.642;13.764;2023-12-04T01:05:51;4.35;;;2.20;;
74656;SDS011;63185;45.642;13.764;2023-12-04T01:08:17;6.68;;;2.47;;
74656;SDS011;63185;45.642;13.764;2023-12-04T01:10:43;5.30;;;2.60;;
74656;SDS011;63185;45.642;13.764;2023-12-04T01:13:08;4.95;;;2.70;;
74656;SDS011;63185;45.642;13.764;2023-12-04T01:15:34;4.78;;;2.17;;
74656;SDS011;63185;45.642;13.764;2023-12-04T01:18:01;4.45;;;2.63;;
74656;SDS011;63185;45.642;13.764;2023-12-04T01:20:27;4.43;;;2.30;;
74656;SDS011;63185;45.642;13.764;2023-12-04T01:22:53;4.38;;;2.20;;
74656;SDS011;63185;45.642;13.764;2023-12-04T01:25:19;4.05;;;2.05;;
74656;SDS011;63185;45.642;13.764;2023-12-04T01:27:44;5.28;;;2.53;;
74656;SDS011;63185;45.642;13.764;2023-12-04T01:30:10;4.28;;;2.40;;
74656;SDS011;63185;45.642;13.764;2023-12-04T01:32:37;4.28;;;2.25;;
74656;SDS011;63185;45.642;13.764;2023-12-04T01:35:03;5.60;;;2.80;;
74656;SDS011;63185;45.642;13.764;2023-12-04T01:37:29;3.75;;;2.30;;
74656;SDS011;63185;45.642;13.764;2023-12-04T01:39:55;7.18;;;2.78;;
74656;SDS011;63185;45.642;13.764;2023-12-04T01:42:21;7.45;;;2.75;;
74656;SDS011;63185;45.642;13.764;2023-12-04T01:44:46;4.55;;;2.65;;
74656;SDS011;63185;45.642;13.764;2023-12-04T01:47:12;5.65;;;2.20;;
74656;SDS011;63185;45.642;13.764;2023-12-04T01:49:38;4.65;;;2.60;;
74656;SDS011;63185;45.642;13.764;2023-12-04T01:52:04;5.40;;;2.67;;
74656;SDS011;63185;45.642;13.764;2023-12-04T01:54:30;4.05;;;2.50;;
74656;SDS011;63185;45.642;13.764;2023-12-04T01:56:57;5.22;;;2.97;;
74656;SDS011;63185;45.642;13.764;2023-12-04T01:59:24;6.28;;;2.97;;
74656;SDS011;63185;45.642;13.764;2023-12-04T02:01:50;5.30;;;2.55;;
74656;SDS011;63185;45.642;13.764;2023-12-04T02:04:17;6.60;;;3.08;;
74656;SDS011;63185;45.642;13.764;2023-12-04T02:06:43;5.07;;;2.83;;
74656;SDS011;63185;45.642;13.764;2023-12-04T02:09:09;6.32;;;3.35;;
74656;SDS011;63185;45.642;13.764;2023-12-04T02:11:37;6.03;;;3.15;;
74656;SDS011;63185;45.642;13.764;2023-12-04T02:14:04;5.50;;;2.75;;
74656;SDS011;63185;45.642;13.764;2023-12-04T02:16:30;8.98;;;3.95;;
74656;SDS011;63185;45.642;13.764;2023-12-04T02:18:57;7.00;;;3.30;;
74656;SDS011;63185;45.642;13.764;2023-12-04T02:21:23;6.28;;;3.42;;
74656;SDS011;63185;45.642;13.764;2023-12-04T02:23:49;6.18;;;2.97;;
74656;SDS011;63185;45.642;13.764;2023-12-04T02:26:17;5.45;;;3.40;;
74656;SDS011;63185;45.642;13.764;2023-12-04T02:28:48;6.07;;;2.50;;
74656;SDS011;63185;45.642;13.764;2023-12-04T02:31:19;5.70;;;2.90;;
74656;SDS011;63185;45.642;13.764;2023-12-04T02:36:15;5.40;;;2.83;;
74656;SDS011;63185;45.642;13.764;2023-12-04T02:38:42;5.18;;;2.72;;
74656;SDS011;63185;45.642;13.764;2023-12-04T02:41:08;5.45;;;2.72;;
74656;SDS011;63185;45.642;13.764;2023-12-04T02:43:34;4.63;;;2.58;;
74656;SDS011;63185;45.642;13.764;2023-12-04T02:46:00;5.15;;;2.42;;
74656;SDS011;63185;45.642;13.764;2023-12-04T02:48:25;4.95;;;2.55;;
74656;SDS011;63185;45.642;13.764;2023-12-04T02:50:51;5.22;;;2.60;;
74656;SDS011;63185;45.642;13.764;2023-12-04T02:53:17;3.53;;;1.80;;
74656;SDS011;63185;45.642;13.764;2023-12-04T02:55:42;3.67;;;2.20;;
74656;SDS011;63185;45.642;13.764;2023-12-04T02:58:08;4.72;;;2.10;;
74656;SDS011;63185;45.642;13.764;2023-12-04T03:00:34;3.58;;;2.10;;
74656;SDS011;63185;45.642;13.764;2023-12-04T03:03:00;2.85;;;1.65;;
74656;SDS011;63185;45.642;13.764;2023-12-04T03:05:25;4.30;;;2.47;;
74656;SDS011;63185;45.642;13.764;2023-12-04T03:07:51;4.13;;;2.03;;
74656;SDS011;63185;45.642;13.764;2023-12-04T03:10:17;4.82;;;2.40;;
74656;SDS011;63185;45.642;13.764;2023-12-04T03:12:42;5.68;;;2.00;;
74656;SDS011;63185;45.642;13.764;2023-12-04T03:15:08;3.40;;;1.58;;
74656;SDS011;63185;45.642;13.764;2023-12-04T03:17:36;3.10;;;1.52;;
74656;SDS011;63185;45.642;13.764;2023-12-04T03:20:01;3.92;;;2.10;;
74656;SDS011;63185;45.642;13.764;2023-12-04T03:22:28;5.05;;;1.67;;
74656;SDS011;63185;45.642;13.764;2023-12-04T03:24:54;3.90;;;1.85;;
74656;SDS011;63185;45.642;13.764;2023-12-04T03:27:19;5.25;;;1.80;;
74656;SDS011;63185;45.642;13.764;2023-12-04T03:29:45;3.38;;;1.63;;
74656;SDS011;63185;45.642;13.764;2023-12-04T03:32:10;3.42;;;1.75;;
74656;SDS011;63185;45.642;13.764;2023-12-04T03:34:36;5.00;;;1.67;;
74656;SDS011;63185;45.642;13.764;2023-12-04T03:37:02;3.58;;;1.75;;
74656;SDS011;63185;45.642;13.764;2023-12-04T03:39:27;3.47;;;1.70;;
74656;SDS011;63185;45.642;13.764;2023-12-04T03:41:53;3.60;;;1.70;;
74656;SDS011;63185;45.642;13.764;2023-12-04T03:44:19;3.67;;;1.70;;
74656;SDS011;63185;45.642;13.764;2023-12-04T03:46:44;3.65;;;1.90;;
74656;SDS011;63185;45.642;13.764;2023-12-04T03:49:10;5.55;;;1.92;;
74656;SDS011;63185;45.642;13.764;2023-12-04T03:51:36;5.07;;;1.73;;
74656;SDS011;63185;45.642;13.764;2023-12-04T03:54:01;3.65;;;2.08;;
74656;SDS011;63185;45.642;13.764;2023-12-04T03:56:27;3.55;;;2.03;;
74656;SDS011;63185;45.642;13.764;2023-12-04T03:58:52;4.07;;;2.35;;
74656;SDS011;63185;45.642;13.764;2023-12-04T04:01:18;3.63;;;1.90;;
74656;SDS011;63185;45.642;13.764;2023-12-04T04:03:44;3.30;;;1.65;;
74656;SDS011;63185;45.642;13.764;2023-12-04T04:06:11;3.40;;;1.92;;
74656;SDS011;63185;45.642;13.764;2023-12-04T04:08:36;4.38;;;1.90;;
74656;SDS011;63185;45.642;13.764;2023-12-04T04:11:02;2.88;;;1.60;;
74656;SDS011;63185;45.642;13.764;2023-12-04T04:13:28;3.85;;;2.03;;
74656;SDS011;63185;45.642;13.764;2023-12-04T04:15:53;2.65;;;1.65;;
74656;SDS011;63185;45.642;13.764;2023-12-04T04:18:19;3.60;;;1.80;;
74656;SDS011;63185;45.642;13.764;2023-12-04T04:20:45;3.38;;;1.85;;
74656;SDS011;63185;45.642;13.764;2023-12-04T04:23:10;4.18;;;2.10;;
74656;SDS011;63185;45.642;13.764;2023-12-04T04:25:36;3.80;;;2.05;;
74656;SDS011;63185;45.642;13.764;2023-12-04T04:28:02;3.92;;;2.00;;
74656;SDS011;63185;45.642;13.764;2023-12-04T04:30:28;5.28;;;2.10;;
74656;SDS011;63185;45.642;13.764;2023-12-04T04:32:53;4.35;;;2.22;;
74656;SDS011;63185;45.642;13.764;2023-12-04T04:35:19;4.55;;;2.40;;
74656;SDS011;63185;45.642;13.764;2023-12-04T04:37:45;2.97;;;1.85;;
74656;SDS011;63185;45.642;13.764;2023-12-04T04:40:10;3.58;;;1.85;;
74656;SDS011;63185;45.642;13.764;2023-12-04T04:42:36;3.42;;;2.10;;
74656;SDS011;63185;45.642;13.764;2023-12-04T04:45:02;4.68;;;2.15;;
74656;SDS011;63185;45.642;13.764;2023-12-04T04:47:28;4.18;;;2.25;;
74656;SDS011;63185;45.642;13.764;2023-12-04T04:49:53;3.70;;;1.70;;
74656;SDS011;63185;45.642;13.764;2023-12-04T04:52:19;3.83;;;2.10;;
74656;SDS011;63185;45.642;13.764;2023-12-04T04:54:45;3.60;;;1.98;;
74656;SDS011;63185;45.642;13.764;2023-12-04T04:57:10;4.40;;;2.10;;
74656;SDS011;63185;45.642;13.764;2023-12-04T04:59:36;5.00;;;2.17;;
74656;SDS011;63185;45.642;13.764;2023-12-04T05:02:01;3.40;;;1.70;;
74656;SDS011;63185;45.642;13.764;2023-12-04T05:04:27;3.97;;;2.25;;
74656;SDS011;63185;45.642;13.764;2023-12-04T05:06:53;4.07;;;2.20;;
74656;SDS011;63185;45.642;13.764;2023-12-04T05:09:19;4.78;;;2.10;;
74656;SDS011;63185;45.642;13.764;2023-12-04T05:11:44;4.35;;;2.20;;
74656;SDS011;63185;45.642;13.764;2023-12-04T05:14:10;4.28;;;2.13;;
74656;SDS011;63185;45.642;13.764;2023-12-04T05:16:36;5.45;;;2.53;;
74656;SDS011;63185;45.642;13.764;2023-12-04T05:19:01;5.95;;;2.42;;
74656;SDS011;63185;45.642;13.764;2023-12-04T05:21:27;5.00;;;2.50;;
74656;SDS011;63185;45.642;13.764;2023-12-04T05:23:53;5.15;;;2.55;;
74656;SDS011;63185;45.642;13.764;2023-12-04T05:26:19;5.53;;;2.40;;
74656;SDS011;63185;45.642;13.764;2023-12-04T05:28:44;4.03;;;2.30;;
74656;SDS011;63185;45.642;13.764;2023-12-04T05:31:11;4.60;;;2.33;;
74656;SDS011;63185;45.642;13.764;2023-12-04T05:33:37;5.95;;;2.90;;
74656;SDS011;63185;45.642;13.764;2023-12-04T05:36:02;4.82;;;2.30;;
74656;SDS011;63185;45.642;13.764;2023-12-04T05:38:28;6.72;;;2.90;;
74656;SDS011;63185;45.642;13.764;2023-12-04T05:40:54;5.97;;;2.10;;
74656;SDS011;63185;45.642;13.764;2023-12-04T05:43:20;4.65;;;2.53;;
74656;SDS011;63185;45.642;13.764;2023-12-04T05:45:45;4.22;;;2.40;;
74656;SDS011;63185;45.642;13.764;2023-12-04T05:48:11;5.47;;;2.58;;
74656;SDS011;63185;45.642;13.764;2023-12-04T05:50:37;5.80;;;2.58;;
74656;SDS011;63185;45.642;13.764;2023-12-04T05:53:02;4.72;;;2.60;;
74656;SDS011;63185;45.642;13.764;2023-12-04T05:55:28;5.00;;;2.30;;
74656;SDS011;63185;45.642;13.764;2023-12-04T05:57:54;6.00;;;3.13;;
74656;SDS011;63185;45.642;13.764;2023-12-04T06:00:19;5.20;;;2.60;;
74656;SDS011;63185;45.642;13.764;2023-12-04T06:02:46;4.25;;;2.65;;
74656;SDS011;63185;45.642;13.764;2023-12-04T06:05:12;4.97;;;2.58;;
74656;SDS011;63185;45.642;13.764;2023-12-04T06:07:38;5.13;;;2.58;;
74656;SDS011;63185;45.642;13.764;2023-12-04T06:10:04;5.05;;;2.88;;
74656;SDS011;63185;45.642;13.764;2023-12-04T06:12:30;6.05;;;3.00;;
74656;SDS011;63185;45.642;13.764;2023-12-04T06:14:57;6.53;;;2.50;;
74656;SDS011;63185;45.642;13.764;2023-12-04T06:17:23;5.28;;;2.67;;
74656;SDS011;63185;45.642;13.764;2023-12-04T06:19:49;6.50;;;3.60;;
74656;SDS011;63185;45.642;13.764;2023-12-04T06:22:15;5.45;;;3.15;;
74656;SDS011;63185;45.642;13.764;2023-12-04T06:24:43;6.65;;;3.17;;
74656;SDS011;63185;45.642;13.764;2023-12-04T06:27:10;4.57;;;2.55;;
74656;SDS011;63185;45.642;13.764;2023-12-04T06:29:40;4.88;;;2.50;;
74656;SDS011;63185;45.642;13.764;2023-12-04T06:32:05;4.65;;;2.55;;
74656;SDS011;63185;45.642;13.764;2023-12-04T06:34:32;5.65;;;3.00;;
74656;SDS011;63185;45.642;13.764;2023-12-04T06:36:59;6.45;;;3.03;;
74656;SDS011;63185;45.642;13.764;2023-12-04T06:39:26;6.50;;;3.03;;
74656;SDS011;63185;45.642;13.764;2023-12-04T06:41:57;5.78;;;3.10;;
74656;SDS011;63185;45.642;13.764;2023-12-04T06:44:24;10.07;;;4.32;;
74656;SDS011;63185;45.642;13.764;2023-12-04T06:46:50;6.63;;;3.10;;
74656;SDS011;63185;45.642;13.764;2023-12-04T06:49:21;5.82;;;3.00;;
74656;SDS011;63185;45.642;13.764;2023-12-04T06:51:47;6.68;;;2.97;;
74656;SDS011;63185;45.642;13.764;2023-12-04T06:54:13;6.70;;;3.00;;
74656;SDS011;63185;45.642;13.764;2023-12-04T06:56:39;6.47;;;3.30;;
74656;SDS011;63185;45.642;13.764;2023-12-04T06:59:04;6.40;;;3.10;;
74656;SDS011;63185;45.642;13.764;2023-12-04T07:01:30;7.43;;;2.88;;
74656;SDS011;63185;45.642;13.764;2023-12-04T07:03:56;6.38;;;2.90;;
74656;SDS011;63185;45.642;13.764;2023-12-04T07:06:22;9.23;;;3.10;;
74656;SDS011;63185;45.642;13.764;2023-12-04T07:08:47;10.18;;;3.95;;
74656;SDS011;63185;45.642;13.764;2023-12-04T07:11:13;8.95;;;3.65;;
74656;SDS011;63185;45.642;13.764;2023-12-04T07:13:42;9.10;;;3.55;;
74656;SDS011;63185;45.642;13.764;2023-12-04T07:16:08;7.75;;;3.58;;
74656;SDS011;63185;45.642;13.764;2023-12-04T07:18:34;6.90;;;3.80;;
74656;SDS011;63185;45.642;13.764;2023-12-04T07:21:00;5.82;;;3.13;;
74656;SDS011;63185;45.642;13.764;2023-12-04T07:23:25;7.60;;;3.58;;
74656;SDS011;63185;45.642;13.764;2023-12-04T07:25:51;8.27;;;3.63;;
74656;SDS011;63185;45.642;13.764;2023-12-04T07:28:17;8.27;;;3.97;;
74656;SDS011;63185;45.642;13.764;2023-12-04T07:30:43;8.95;;;3.90;;
74656;SDS011;63185;45.642;13.764;2023-12-04T07:33:09;8.40;;;3.70;;
74656;SDS011;63185;45.642;13.764;2023-12-04T07:35:34;6.85;;;3.50;;
74656;SDS011;63185;45.642;13.764;2023-12-04T07:38:00;6.47;;;3.20;;
74656;SDS011;63185;45.642;13.764;2023-12-04T07:40:25;8.90;;;3.65;;
74656;SDS011;63185;45.642;13.764;2023-12-04T07:42:51;10.60;;;4.07;;
74656;SDS011;63185;45.642;13.764;2023-12-04T07:45:17;15.35;;;6.70;;
74656;SDS011;63185;45.642;13.764;2023-12-04T07:47:43;15.13;;;7.07;;
74656;SDS011;63185;45.642;13.764;2023-12-04T07:50:08;11.60;;;5.63;;
74656;SDS011;63185;45.642;13.764;2023-12-04T07:52:34;12.85;;;5.88;;
74656;SDS011;63185;45.642;13.764;2023-12-04T07:55:00;12.35;;;4.78;;
74656;SDS011;63185;45.642;13.764;2023-12-04T07:57:26;9.18;;;4.22;;
74656;SDS011;63185;45.642;13.764;2023-12-04T07:59:52;8.98;;;4.43;;
74656;SDS011;63185;45.642;13.764;2023-12-04T08:02:18;9.57;;;4.38;;
74656;SDS011;63185;45.642;13.764;2023-12-04T08:04:44;7.88;;;3.85;;
74656;SDS011;63185;45.642;13.764;2023-12-04T08:07:10;12.68;;;3.95;;
74656;SDS011;63185;45.642;13.764;2023-12-04T08:09:36;5.22;;;2.90;;
74656;SDS011;63185;45.642;13.764;2023-12-04T08:12:02;8.40;;;3.70;;
74656;SDS011;63185;45.642;13.764;2023-12-04T08:14:27;7.20;;;3.65;;
74656;SDS011;63185;45.642;13.764;2023-12-04T08:16:53;8.82;;;3.88;;
74656;SDS011;63185;45.642;13.764;2023-12-04T08:19:19;9.02;;;4.50;;
74656;SDS011;63185;45.642;13.764;2023-12-04T08:21:44;9.23;;;4.03;;
74656;SDS011;63185;45.642;13.764;2023-12-04T08:24:11;6.85;;;3.35;;
74656;SDS011;63185;45.642;13.764;2023-12-04T08:26:37;9.48;;;3.75;;
74656;SDS011;63185;45.642;13.764;2023-12-04T08:29:02;8.25;;;3.42;;
74656;SDS011;63185;45.642;13.764;2023-12-04T08:31:28;7.50;;;3.28;;
74656;SDS011;63185;45.642;13.764;2023-12-04T08:33:54;8.30;;;3.10;;
74656;SDS011;63185;45.642;13.764;2023-12-04T08:36:19;5.97;;;2.90;;
74656;SDS011;63185;45.642;13.764;2023-12-04T08:38:45;6.85;;;3.17;;
74656;SDS011;63185;45.642;13.764;2023-12-04T08:41:11;6.90;;;2.50;;
74656;SDS011;63185;45.642;13.764;2023-12-04T08:43:37;5.07;;;2.50;;
74656;SDS011;63185;45.642;13.764;2023-12-04T08:46:02;7.38;;;3.05;;
74656;SDS011;63185;45.642;13.764;2023-12-04T08:48:28;9.45;;;2.78;;
74656;SDS011;63185;45.642;13.764;2023-12-04T08:50:54;6.28;;;2.53;;
74656;SDS011;63185;45.642;13.764;2023-12-04T08:53:21;7.10;;;2.72;;
74656;SDS011;63185;45.642;13.764;2023-12-04T08:55:47;4.00;;;2.10;;
74656;SDS011;63185;45.642;13.764;2023-12-04T08:58:12;7.18;;;2.35;;
74656;SDS011;63185;45.642;13.764;2023-12-04T09:00:38;6.45;;;2.88;;
74656;SDS011;63185;45.642;13.764;2023-12-04T09:03:07;7.85;;;3.08;;
74656;SDS011;63185;45.642;13.764;2023-12-04T09:05:35;5.00;;;2.47;;
74656;SDS011;63185;45.642;13.764;2023-12-04T09:08:01;5.10;;;2.40;;
74656;SDS011;63185;45.642;13.764;2023-12-04T09:10:27;4.82;;;2.38;;
74656;SDS011;63185;45.642;13.764;2023-12-04T09:12:53;4.97;;;2.15;;
74656;SDS011;63185;45.642;13.764;2023-12-04T09:15:19;5.97;;;2.50;;
74656;SDS011;63185;45.642;13.764;2023-12-04T09:17:45;5.15;;;2.40;;
74656;SDS011;63185;45.642;13.764;2023-12-04T09:20:11;4.35;;;2.28;;
74656;SDS011;63185;45.642;13.764;2023-12-04T09:22:36;4.97;;;2.47;;
74656;SDS011;63185;45.642;13.764;2023-12-04T09:25:06;4.05;;;2.38;;
74656;SDS011;63185;45.642;13.764;2023-12-04T09:27:34;4.43;;;2.33;;
74656;SDS011;63185;45.642;13.764;2023-12-04T09:30:00;5.07;;;2.55;;
74656;SDS011;63185;45.642;13.764;2023-12-04T09:32:26;5.47;;;2.42;;
74656;SDS011;63185;45.642;13.764;2023-12-04T09:34:51;6.35;;;2.67;;
74656;SDS011;63185;45.642;13.764;2023-12-04T09:37:17;9.63;;;2.97;;
74656;SDS011;63185;45.642;13.764;2023-12-04T09:39:43;6.78;;;2.50;;
74656;SDS011;63185;45.642;13.764;2023-12-04T09:42:08;10.18;;;3.17;;
74656;SDS011;63185;45.642;13.764;2023-12-04T09:44:36;4.18;;;2.28;;
74656;SDS011;63185;45.642;13.764;2023-12-04T09:47:02;7.95;;;2.80;;
74656;SDS011;63185;45.642;13.764;2023-12-04T09:49:29;4.90;;;2.25;;
74656;SDS011;63185;45.642;13.764;2023-12-04T09:52:00;5.07;;;2.35;;
74656;SDS011;63185;45.642;13.764;2023-12-04T09:54:29;3.88;;;2.20;;
74656;SDS011;63185;45.642;13.764;2023-12-04T09:56:56;5.50;;;2.50;;
74656;SDS011;63185;45.642;13.764;2023-12-04T09:59:23;5.28;;;2.22;;
74656;SDS011;63185;45.642;13.764;2023-12-04T10:01:52;5.45;;;2.33;;
74656;SDS011;63185;45.642;13.764;2023-12-04T10:04:19;6.72;;;2.78;;
74656;SDS011;63185;45.642;13.764;2023-12-04T10:06:46;3.38;;;1.70;;
74656;SDS011;63185;45.642;13.764;2023-12-04T10:09:16;10.27;;;2.80;;
74656;SDS011;63185;45.642;13.764;2023-12-04T10:11:43;6.15;;;3.08;;
74656;SDS011;63185;45.642;13.764;2023-12-04T10:14:14;10.57;;;3.60;;
74656;SDS011;63185;45.642;13.764;2023-12-04T10:16:41;6.03;;;2.90;;
74656;SDS011;63185;45.642;13.764;2023-12-04T10:19:14;5.45;;;3.03;;
74656;SDS011;63185;45.642;13.764;2023-12-04T10:21:45;4.80;;;2.40;;
74656;SDS011;63185;45.642;13.764;2023-12-04T10:24:11;3.45;;;1.92;;
74656;SDS011;63185;45.642;13.764;2023-12-04T10:26:37;4.80;;;1.90;;
74656;SDS011;63185;45.642;13.764;2023-12-04T10:29:14;6.03;;;1.65;;
74656;SDS011;63185;45.642;13.764;2023-12-04T10:31:40;5.75;;;1.90;;
74656;SDS011;63185;45.642;13.764;2023-12-04T10:34:05;4.07;;;1.90;;
74656;SDS011;63185;45.642;13.764;2023-12-04T10:36:34;4.35;;;1.92;;
74656;SDS011;63185;45.642;13.764;2023-12-04T10:39:01;5.88;;;2.15;;
74656;SDS011;63185;45.642;13.764;2023-12-04T10:41:30;5.07;;;2.10;;
74656;SDS011;63185;45.642;13.764;2023-12-04T10:43:56;5.60;;;2.22;;
74656;SDS011;63185;45.642;13.764;2023-12-04T10:46:26;5.38;;;2.65;;
74656;SDS011;63185;45.642;13.764;2023-12-04T10:48:53;7.25;;;2.15;;
74656;SDS011;63185;45.642;13.764;2023-12-04T10:51:19;3.80;;;1.90;;
74656;SDS011;63185;45.642;13.764;2023-12-04T10:53:47;7.05;;;2.17;;
74656;SDS011;63185;45.642;13.764;2023-12-04T10:56:19;6.15;;;1.90;;
74656;SDS011;63185;45.642;13.764;2023-12-04T10:58:56;7.40;;;1.60;;
74656;SDS011;63185;45.642;13.764;2023-12-04T11:01:25;2.90;;;1.35;;
74656;SDS011;63185;45.642;13.764;2023-12-04T11:03:51;6.70;;;1.73;;
74656;SDS011;63185;45.642;13.764;2023-12-04T11:06:21;4.25;;;1.80;;
74656;SDS011;63185;45.642;13.764;2023-12-04T11:08:48;3.70;;;1.50;;
74656;SDS011;63185;45.642;13.764;2023-12-04T11:11:22;2.57;;;1.37;;
74656;SDS011;63185;45.642;13.764;2023-12-04T11:13:58;8.13;;;1.85;;
74656;SDS011;63185;45.642;13.764;2023-12-04T11:16:46;3.67;;;1.88;;
74656;SDS011;63185;45.642;13.764;2023-12-04T11:20:15;7.05;;;2.13;;
74656;SDS011;63185;45.642;13.764;2023-12-04T11:22:11;8.13;;;1.83;;
74656;SDS011;63185;45.642;13.764;2023-12-04T11:24:39;7.07;;;1.80;;
74656;SDS011;63185;45.642;13.764;2023-12-04T11:27:04;3.63;;;1.67;;
74656;SDS011;63185;45.642;13.764;2023-12-04T11:29:31;7.20;;;2.42;;
74656;SDS011;63185;45.642;13.764;2023-12-04T11:31:58;6.30;;;2.33;;
74656;SDS011;63185;45.642;13.764;2023-12-04T11:34:24;4.68;;;2.50;;
74656;SDS011;63185;45.642;13.764;2023-12-04T11:36:50;4.75;;;1.95;;
74656;SDS011;63185;45.642;13.764;2023-12-04T11:39:18;4.60;;;2.40;;
74656;SDS011;63185;45.642;13.764;2023-12-04T11:41:44;5.88;;;1.95;;
74656;SDS011;63185;45.642;13.764;2023-12-04T11:44:14;6.60;;;2.83;;
74656;SDS011;63185;45.642;13.764;2023-12-04T11:46:41;5.65;;;2.40;;
74656;SDS011;63185;45.642;13.764;2023-12-04T11:49:28;4.82;;;2.20;;
74656;SDS011;63185;45.642;13.764;2023-12-04T11:51:55;5.43;;;2.10;;
74656;SDS011;63185;45.642;13.764;2023-12-04T11:54:22;6.50;;;2.65;;
74656;SDS011;63185;45.642;13.764;2023-12-04T11:56:58;6.05;;;2.72;;
74656;SDS011;63185;45.642;13.764;2023-12-04T11:59:43;5.93;;;2.30;;
74656;SDS011;63185;45.642;13.764;2023-12-04T12:02:10;5.78;;;2.50;;
74656;SDS011;63185;45.642;13.764;2023-12-04T12:04:36;4.70;;;2.00;;
74656;SDS011;63185;45.642;13.764;2023-12-04T12:07:02;5.15;;;2.38;;
74656;SDS011;63185;45.642;13.764;2023-12-04T12:09:31;4.80;;;2.22;;
74656;SDS011;63185;45.642;13.764;2023-12-04T12:12:01;4.57;;;2.15;;
74656;SDS011;63185;45.642;13.764;2023-12-04T12:14:28;6.35;;;2.50;;
74656;SDS011;63185;45.642;13.764;2023-12-04T12:16:54;6.15;;;2.30;;
74656;SDS011;63185;45.642;13.764;2023-12-04T12:19:20;6.10;;;1.90;;
74656;SDS011;63185;45.642;13.764;2023-12-04T12:21:47;4.95;;;1.80;;
74656;SDS011;63185;45.642;13.764;2023-12-04T12:24:17;3.45;;;1.55;;
74656;SDS011;63185;45.642;13.764;2023-12-04T12:26:43;2.72;;;1.40;;
74656;SDS011;63185;45.642;13.764;2023-12-04T12:29:10;3.95;;;1.40;;
74656;SDS011;63185;45.642;13.764;2023-12-04T12:31:36;4.00;;;1.67;;
74656;SDS011;63185;45.642;13.764;2023-12-04T12:34:01;3.42;;;1.20;;
74656;SDS011;63185;45.642;13.764;2023-12-04T12:36:28;3.50;;;1.25;;
74656;SDS011;63185;45.642;13.764;2023-12-04T12:38:54;3.90;;;1.48;;
74656;SDS011;63185;45.642;13.764;2023-12-04T12:41:21;4.55;;;1.80;;
74656;SDS011;63185;45.642;13.764;2023-12-04T12:43:46;3.10;;;1.80;;
74656;SDS011;63185;45.642;13.764;2023-12-04T12:46:17;4.03;;;1.50;;
74656;SDS011;63185;45.642;13.764;2023-12-04T12:48:43;3.70;;;1.85;;
74656;SDS011;63185;45.642;13.764;2023-12-04T12:51:09;5.38;;;1.90;;
74656;SDS011;63185;45.642;13.764;2023-12-04T12:53:36;4.40;;;2.20;;
74656;SDS011;63185;45.642;13.764;2023-12-04T12:56:02;5.68;;;2.38;;
74656;SDS011;63185;45.642;13.764;2023-12-04T12:58:29;7.05;;;2.63;;
74656;SDS011;63185;45.642;13.764;2023-12-04T13:00:55;5.30;;;2.40;;
74656;SDS011;63185;45.642;13.764;2023-12-04T13:03:21;10.60;;;2.72;;
74656;SDS011;63185;45.642;13.764;2023-12-04T13:05:47;7.18;;;3.10;;
74656;SDS011;63185;45.642;13.764;2023-12-04T13:08:13;6.47;;;2.28;;
74656;SDS011;63185;45.642;13.764;2023-12-04T13:10:40;4.60;;;2.38;;
74656;SDS011;63185;45.642;13.764;2023-12-04T13:13:13;6.45;;;2.08;;
74656;SDS011;63185;45.642;13.764;2023-12-04T13:15:39;3.97;;;2.17;;
74656;SDS011;63185;45.642;13.764;2023-12-04T13:18:06;5.40;;;1.85;;
74656;SDS011;63185;45.642;13.764;2023-12-04T13:20:32;5.15;;;2.10;;
74656;SDS011;63185;45.642;13.764;2023-12-04T13:22:59;3.67;;;1.88;;
74656;SDS011;63185;45.642;13.764;2023-12-04T13:25:25;5.00;;;2.80;;
74656;SDS011;63185;45.642;13.764;2023-12-04T13:27:51;5.50;;;2.45;;
74656;SDS011;63185;45.642;13.764;2023-12-04T13:30:18;4.10;;;2.22;;
74656;SDS011;63185;45.642;13.764;2023-12-04T13:32:44;5.68;;;2.67;;
74656;SDS011;63185;45.642;13.764;2023-12-04T13:35:10;5.72;;;2.13;;
74656;SDS011;63185;45.642;13.764;2023-12-04T13:37:37;4.32;;;2.20;;
74656;SDS011;63185;45.642;13.764;2023-12-04T13:40:04;5.50;;;2.47;;
74656;SDS011;63185;45.642;13.764;2023-12-04T13:42:37;5.32;;;2.30;;
74656;SDS011;63185;45.642;13.764;2023-12-04T13:45:22;8.57;;;2.20;;
74656;SDS011;63185;45.642;13.764;2023-12-04T13:47:48;3.72;;;1.25;;
74656;SDS011;63185;45.642;13.764;2023-12-04T13:50:14;3.08;;;1.70;;
74656;SDS011;63185;45.642;13.764;2023-12-04T13:52:40;2.42;;;1.10;;
74656;SDS011;63185;45.642;13.764;2023-12-04T13:55:08;3.95;;;1.23;;
74656;SDS011;63185;45.642;13.764;2023-12-04T13:57:45;3.97;;;1.50;;
74656;SDS011;63185;45.642;13.764;2023-12-04T14:00:35;2.70;;;1.17;;
74656;SDS011;63185;45.642;13.764;2023-12-04T14:03:01;2.40;;;1.35;;
74656;SDS011;63185;45.642;13.764;2023-12-04T14:05:30;3.83;;;1.20;;
74656;SDS011;63185;45.642;13.764;2023-12-04T14:07:56;3.13;;;1.35;;
74656;SDS011;63185;45.642;13.764;2023-12-04T14:10:23;3.25;;;1.05;;
74656;SDS011;63185;45.642;13.764;2023-12-04T14:12:51;2.90;;;1.50;;
74656;SDS011;63185;45.642;13.764;2023-12-04T14:15:16;5.47;;;1.60;;
74656;SDS011;63185;45.642;13.764;2023-12-04T14:17:42;3.38;;;1.50;;
74656;SDS011;63185;45.642;13.764;2023-12-04T14:20:08;3.30;;;1.30;;
74656;SDS011;63185;45.642;13.764;2023-12-04T14:22:38;2.83;;;1.25;;
74656;SDS011;63185;45.642;13.764;2023-12-04T14:25:07;2.90;;;1.30;;
74656;SDS011;63185;45.642;13.764;2023-12-04T14:27:33;3.90;;;1.38;;
74656;SDS011;63185;45.642;13.764;2023-12-04T14:29:59;3.28;;;1.42;;
74656;SDS011;63185;45.642;13.764;2023-12-04T14:32:24;2.60;;;1.42;;